sensor_id;sensor_type;location;lat;lon;timestamp;pressure;altitude;pressure_sealevel;temperature;humidity
26043;BME280;13818;52.156;5.382;2024-03-23T00:53:53;100792.06;;;8.60;100.00
26043;BME280;13818;52.156;5.382;2024-03-23T00:56:18;100793.78;;;8.61;100.00
26043;BME280;13818;52.156;5.382;2024-03-23T00:58:45;100792.16;;;8.81;100.00
26043;BME280;13818;52.156;5.382;2024-03-23T01:01:12;100790.09;;;8.87;100.00
26043;BME280;13818;52.156;5.382;2024-03-23T01:03:39;100794.50;;;8.66;100.00
26043;BME280;13818;52.156;5.382;2024-03-23T01:06:04;100798.06;;;8.65;100.00
26043;BME280;13818;52.156;5.382;2024-03-23T01:08:31;100797.78;;;8.73;100.00
26043;BME280;13818;52.156;5.382;2024-03-23T01:10:59;100790.84;;;8.69;100.00
26043;BME280;13818;52.156;5.382;2024-03-23T01:13:26;100787.88;;;8.76;100.00
26043;BME280;13818;52.156;5.382;2024-03-23T01:15:53;100783.50;;;8.75;100.00
26043;BME280;13818;52.156;5.382;2024-03-23T01:18:20;100782.69;;;8.73;100.00
26043;BME280;13818;52.156;5.382;2024-03-23T01:20:46;100765.72;;;8.77;100.00
26043;BME280;13818;52.156;5.382;2024-03-23T01:23:13;100774.06;;;8.90;100.00
26043;BME280;13818;52.156;5.382;2024-03-23T01:25:39;100778.97;;;9.00;100.00
26043;BME280;13818;52.156;5.382;2024-03-23T01:28:07;100770.19;;;8.98;100.00
26043;BME280;13818;52.156;5.382;2024-03-23T01:30:33;100759.09;;;8.88;100.00
26043;BME280;13818;52.156;5.382;2024-03-23T01:32:59;100755.56;;;8.87;100.00
26043;BME280;13818;52.156;5.382;2024-03-23T01:35:25;100754.88;;;8.82;100.00
26043;BME280;13818;52.156;5.382;2024-03-23T01:37:52;100746.53;;;8.69;100.00
26043;BME280;13818;52.156;5.382;2024-03-23T01:40:17;100745.31;;;8.78;100.00
26043;BME280;13818;52.156;5.382;2024-03-23T01:42:55;100740.66;;;8.83;100.00
26043;BME280;13818;52.156;5.382;2024-03-23T01:45:23;100733.50;;;8.85;100.00
26043;BME280;13818;52.156;5.382;2024-03-23T01:47:49;100739.00;;;8.81;100.00
26043;BME280;13818;52.156;5.382;2024-03-23T01:50:15;100728.13;;;8.87;100.00
26043;BME280;13818;52.156;5.382;2024-03-23T01:52:42;100727.50;;;8.80;100.00
26043;BME280;13818;52.156;5.382;2024-03-23T01:55:08;100730.22;;;8.78;100.00
26043;BME280;13818;52.156;5.382;2024-03-23T01:57:34;100726.19;;;8.90;100.00
26043;BME280;13818;52.156;5.382;2024-03-23T02:00:00;100723.88;;;8.83;100.00
26043;BME280;13818;52.156;5.382;2024-03-23T02:02:28;100723.47;;;8.70;100.00
26043;BME280;13818;52.156;5.382;2024-03-23T02:04:53;100722.00;;;8.62;100.00
26043;BME280;13818;52.156;5.382;2024-03-23T02:07:19;100722.41;;;8.52;100.00
26043;BME280;13818;52.156;5.382;2024-03-23T02:09:45;100721.13;;;8.38;100.00
26043;BME280;13818;52.156;5.382;2024-03-23T02:12:12;100716.34;;;8.24;100.00
26043;BME280;13818;52.156;5.382;2024-03-23T02:14:37;100724.84;;;8.10;100.00
26043;BME280;13818;52.156;5.382;2024-03-23T02:17:04;100722.69;;;7.98;100.00
26043;BME280;13818;52.156;5.382;2024-03-23T02:19:31;100728.06;;;7.95;100.00
26043;BME280;13818;52.156;5.382;2024-03-23T02:21:57;100723.97;;;7.86;100.00
26043;BME280;13818;52.156;5.382;2024-03-23T02:24:25;100730.38;;;7.80;100.00
26043;BME280;13818;52.156;5.382;2024-03-23T02:26:51;100716.41;;;7.75;100.00
26043;BME280;13818;52.156;5.382;2024-03-23T02:29:18;100713.09;;;7.69;100.00
26043;BME280;13818;52.156;5.382;2024-03-23T02:31:45;100709.75;;;7.63;100.00
26043;BME280;13818;52.156;5.382;2024-03-23T02:34:10;100711.84;;;7.55;100.00
26043;BME280;13818;52.156;5.382;2024-03-23T02:36:37;100705.66;;;7.55;100.00
26043;BME280;13818;52.156;5.382;2024-03-23T02:39:03;100699.22;;;7.62;100.00
26043;BME280;13818;52.156;5.382;2024-03-23T02:41:31;100701.09;;;7.58;100.00
26043;BME280;13818;52.156;5.382;2024-03-23T02:43:57;100700.50;;;7.50;100.00
26043;BME280;13818;52.156;5.382;2024-03-23T02:46:23;100706.06;;;7.44;100.00
26043;BME280;13818;52.156;5.382;2024-03-23T02:48:49;100700.47;;;7.52;100.00
26043;BME280;13818;52.156;5.382;2024-03-23T02:51:15;100694.00;;;7.59;100.00
26043;BME280;13818;52.156;5.382;2024-03-23T02:53:41;100700.94;;;7.63;100.00
26043;BME280;13818;52.156;5.382;2024-03-23T02:56:07;100699.44;;;7.56;100.00
26043;BME280;13818;52.156;5.382;2024-03-23T02:58:36;100698.56;;;7.55;100.00
26043;BME280;13818;52.156;5.382;2024-03-23T03:01:02;100700.41;;;7.53;100.00
26043;BME280;13818;52.156;5.382;2024-03-23T03:03:28;100691.97;;;7.42;100.00
26043;BME280;13818;52.156;5.382;2024-03-23T03:05:55;100690.44;;;7.35;100.00
26043;BME280;13818;52.156;5.382;2024-03-23T03:08:21;100696.72;;;7.32;100.00
26043;BME280;13818;52.156;5.382;2024-03-23T03:10:47;100698.03;;;7.20;100.00
26043;BME280;13818;52.156;5.382;2024-03-23T03:13:12;100699.91;;;7.16;100.00
26043;BME280;13818;52.156;5.382;2024-03-23T03:15:41;100701.66;;;7.18;100.00
26043;BME280;13818;52.156;5.382;2024-03-23T03:18:06;100698.13;;;7.17;100.00
26043;BME280;13818;52.156;5.382;2024-03-23T03:20:33;100690.28;;;7.14;100.00
26043;BME280;13818;52.156;5.382;2024-03-23T03:23:00;100700.00;;;7.13;100.00
26043;BME280;13818;52.156;5.382;2024-03-23T03:25:26;100691.06;;;7.16;100.00
26043;BME280;13818;52.156;5.382;2024-03-23T03:27:51;100697.13;;;7.20;100.00
26043;BME280;13818;52.156;5.382;2024-03-23T03:30:18;100695.41;;;7.19;100.00
26043;BME280;13818;52.156;5.382;2024-03-23T03:32:45;100689.31;;;7.16;100.00
26043;BME280;13818;52.156;5.382;2024-03-23T03:35:11;100684.97;;;7.14;100.00
26043;BME280;13818;52.156;5.382;2024-03-23T03:37:37;100685.06;;;7.11;100.00
26043;BME280;13818;52.156;5.382;2024-03-23T03:40:04;100676.97;;;7.15;100.00
26043;BME280;13818;52.156;5.382;2024-03-23T03:42:30;100682.28;;;7.15;100.00
26043;BME280;13818;52.156;5.382;2024-03-23T03:44:56;100680.75;;;7.08;100.00
26043;BME280;13818;52.156;5.382;2024-03-23T03:47:22;100677.94;;;7.13;100.00
26043;BME280;13818;52.156;5.382;2024-03-23T03:49:50;100672.31;;;7.22;100.00
26043;BME280;13818;52.156;5.382;2024-03-23T03:52:15;100664.47;;;7.19;100.00
26043;BME280;13818;52.156;5.382;2024-03-23T03:54:43;100668.19;;;7.13;100.00
26043;BME280;13818;52.156;5.382;2024-03-23T03:57:08;100666.78;;;7.03;100.00
26043;BME280;13818;52.156;5.382;2024-03-23T03:59:34;100673.13;;;6.99;100.00
26043;BME280;13818;52.156;5.382;2024-03-23T04:02:00;100664.41;;;6.95;100.00
26043;BME280;13818;52.156;5.382;2024-03-23T04:04:26;100664.81;;;6.83;100.00
26043;BME280;13818;52.156;5.382;2024-03-23T04:06:59;100671.25;;;6.76;100.00
26043;BME280;13818;52.156;5.382;2024-03-23T04:09:25;100649.63;;;6.88;100.00
26043;BME280;13818;52.156;5.382;2024-03-23T04:11:51;100651.09;;;6.97;100.00
26043;BME280;13818;52.156;5.382;2024-03-23T04:14:17;100651.84;;;7.00;100.00
26043;BME280;13818;52.156;5.382;2024-03-23T04:16:43;100655.16;;;7.07;100.00
26043;BME280;13818;52.156;5.382;2024-03-23T04:19:09;100650.38;;;6.92;100.00
26043;BME280;13818;52.156;5.382;2024-03-23T04:21:35;100650.09;;;7.01;100.00
26043;BME280;13818;52.156;5.382;2024-03-23T04:24:04;100649.84;;;7.07;100.00
26043;BME280;13818;52.156;5.382;2024-03-23T04:26:29;100652.41;;;7.10;100.00
26043;BME280;13818;52.156;5.382;2024-03-23T04:28:55;100645.72;;;7.25;100.00
26043;BME280;13818;52.156;5.382;2024-03-23T04:31:21;100647.44;;;7.26;100.00
26043;BME280;13818;52.156;5.382;2024-03-23T04:33:48;100643.28;;;7.19;100.00
26043;BME280;13818;52.156;5.382;2024-03-23T04:36:14;100648.06;;;7.33;100.00
26043;BME280;13818;52.156;5.382;2024-03-23T04:38:40;100646.19;;;7.37;100.00
26043;BME280;13818;52.156;5.382;2024-03-23T04:41:08;100648.84;;;7.37;100.00
26043;BME280;13818;52.156;5.382;2024-03-23T04:43:35;100654.03;;;7.40;100.00
26043;BME280;13818;52.156;5.382;2024-03-23T04:46:01;100645.31;;;7.36;100.00
26043;BME280;13818;52.156;5.382;2024-03-23T04:48:28;100662.16;;;7.35;100.00
26043;BME280;13818;52.156;5.382;2024-03-23T04:50:55;100646.13;;;7.38;100.00
26043;BME280;13818;52.156;5.382;2024-03-23T04:53:20;100651.50;;;7.37;100.00
26043;BME280;13818;52.156;5.382;2024-03-23T04:55:48;100644.09;;;7.45;100.00
26043;BME280;13818;52.156;5.382;2024-03-23T04:58:16;100638.66;;;7.49;100.00
26043;BME280;13818;52.156;5.382;2024-03-23T05:00:41;100635.53;;;7.38;100.00
26043;BME280;13818;52.156;5.382;2024-03-23T05:03:07;100644.72;;;7.28;100.00
26043;BME280;13818;52.156;5.382;2024-03-23T05:05:34;100647.75;;;7.17;100.00
26043;BME280;13818;52.156;5.382;2024-03-23T05:07:59;100637.75;;;7.00;100.00
26043;BME280;13818;52.156;5.382;2024-03-23T05:10:26;100641.38;;;6.97;100.00
26043;BME280;13818;52.156;5.382;2024-03-23T05:12:51;100637.31;;;6.87;100.00
26043;BME280;13818;52.156;5.382;2024-03-23T05:15:19;100640.75;;;6.89;100.00
26043;BME280;13818;52.156;5.382;2024-03-23T05:17:44;100641.94;;;6.80;100.00
26043;BME280;13818;52.156;5.382;2024-03-23T05:20:11;100644.28;;;6.90;100.00
26043;BME280;13818;52.156;5.382;2024-03-23T05:22:37;100649.88;;;6.80;100.00
26043;BME280;13818;52.156;5.382;2024-03-23T05:25:04;100644.50;;;6.83;100.00
26043;BME280;13818;52.156;5.382;2024-03-23T05:27:31;100647.09;;;6.85;100.00
26043;BME280;13818;52.156;5.382;2024-03-23T05:29:58;100644.50;;;6.83;100.00
26043;BME280;13818;52.156;5.382;2024-03-23T05:32:25;100646.88;;;6.91;100.00
26043;BME280;13818;52.156;5.382;2024-03-23T05:34:51;100643.03;;;6.73;100.00
26043;BME280;13818;52.156;5.382;2024-03-23T05:37:21;100651.09;;;6.70;100.00
26043;BME280;13818;52.156;5.382;2024-03-23T05:39:47;100649.63;;;6.61;100.00
26043;BME280;13818;52.156;5.382;2024-03-23T05:42:14;100649.75;;;6.58;100.00
26043;BME280;13818;52.156;5.382;2024-03-23T05:44:43;100645.03;;;6.66;100.00
26043;BME280;13818;52.156;5.382;2024-03-23T05:47:09;100642.00;;;6.79;100.00
26043;BME280;13818;52.156;5.382;2024-03-23T05:49:37;100648.84;;;6.84;100.00
26043;BME280;13818;52.156;5.382;2024-03-23T05:52:03;100641.25;;;7.00;100.00
26043;BME280;13818;52.156;5.382;2024-03-23T05:54:29;100645.31;;;7.11;100.00
26043;BME280;13818;52.156;5.382;2024-03-23T05:56:55;100637.91;;;7.21;100.00
26043;BME280;13818;52.156;5.382;2024-03-23T05:59:21;100631.75;;;7.20;100.00
26043;BME280;13818;52.156;5.382;2024-03-23T06:01:47;100641.47;;;7.20;100.00
26043;BME280;13818;52.156;5.382;2024-03-23T06:04:14;100634.44;;;7.19;100.00
26043;BME280;13818;52.156;5.382;2024-03-23T06:06:41;100645.91;;;7.19;100.00
26043;BME280;13818;52.156;5.382;2024-03-23T06:09:07;100639.72;;;7.19;100.00
26043;BME280;13818;52.156;5.382;2024-03-23T06:11:33;100644.81;;;7.25;100.00
26043;BME280;13818;52.156;5.382;2024-03-23T06:13:59;100631.19;;;7.36;100.00
26043;BME280;13818;52.156;5.382;2024-03-23T06:16:25;100633.63;;;7.42;100.00
26043;BME280;13818;52.156;5.382;2024-03-23T06:18:52;100639.50;;;7.50;100.00
26043;BME280;13818;52.156;5.382;2024-03-23T06:21:18;100641.13;;;7.54;100.00
26043;BME280;13818;52.156;5.382;2024-03-23T06:23:47;100637.84;;;7.71;100.00
26043;BME280;13818;52.156;5.382;2024-03-23T06:26:16;100635.59;;;7.84;100.00
26043;BME280;13818;52.156;5.382;2024-03-23T06:28:43;100625.19;;;8.02;100.00
26043;BME280;13818;52.156;5.382;2024-03-23T06:31:09;100632.38;;;8.44;100.00
26043;BME280;13818;52.156;5.382;2024-03-23T06:33:35;100631.44;;;9.10;100.00
26043;BME280;13818;52.156;5.382;2024-03-23T06:36:02;100620.41;;;9.59;100.00
26043;BME280;13818;52.156;5.382;2024-03-23T06:38:28;100628.34;;;10.37;100.00
26043;BME280;13818;52.156;5.382;2024-03-23T06:40:55;100631.47;;;10.82;100.00
26043;BME280;13818;52.156;5.382;2024-03-23T06:43:22;100628.16;;;11.12;100.00
26043;BME280;13818;52.156;5.382;2024-03-23T06:45:52;100622.78;;;11.80;100.00
26043;BME280;13818;52.156;5.382;2024-03-23T06:48:19;100622.47;;;12.02;100.00
26043;BME280;13818;52.156;5.382;2024-03-23T06:50:44;100624.19;;;12.82;100.00
26043;BME280;13818;52.156;5.382;2024-03-23T06:53:11;100624.59;;;12.90;100.00
26043;BME280;13818;52.156;5.382;2024-03-23T06:55:37;100634.22;;;13.09;100.00
26043;BME280;13818;52.156;5.382;2024-03-23T06:58:04;100631.72;;;13.50;100.00
26043;BME280;13818;52.156;5.382;2024-03-23T07:00:30;100649.09;;;13.43;100.00
26043;BME280;13818;52.156;5.382;2024-03-23T07:02:57;100637.63;;;13.85;100.00
26043;BME280;13818;52.156;5.382;2024-03-23T07:05:22;100645.34;;;13.01;100.00
26043;BME280;13818;52.156;5.382;2024-03-23T07:07:49;100639.28;;;13.58;100.00
26043;BME280;13818;52.156;5.382;2024-03-23T07:10:15;100640.91;;;13.61;100.00
26043;BME280;13818;52.156;5.382;2024-03-23T07:12:42;100627.78;;;13.99;100.00
26043;BME280;13818;52.156;5.382;2024-03-23T07:15:10;100638.97;;;14.61;100.00
26043;BME280;13818;52.156;5.382;2024-03-23T07:17:37;100632.75;;;14.33;100.00
26043;BME280;13818;52.156;5.382;2024-03-23T07:20:03;100638.34;;;14.97;100.00
26043;BME280;13818;52.156;5.382;2024-03-23T07:22:30;100634.81;;;14.84;100.00
26043;BME280;13818;52.156;5.382;2024-03-23T07:24:55;100633.22;;;15.20;100.00
26043;BME280;13818;52.156;5.382;2024-03-23T07:27:22;100640.00;;;15.13;100.00
26043;BME280;13818;52.156;5.382;2024-03-23T07:29:49;100637.94;;;15.04;100.00
26043;BME280;13818;52.156;5.382;2024-03-23T07:32:16;100639.53;;;14.93;100.00
26043;BME280;13818;52.156;5.382;2024-03-23T07:34:42;100641.91;;;14.98;100.00
26043;BME280;13818;52.156;5.382;2024-03-23T07:37:09;100635.88;;;14.82;100.00
26043;BME280;13818;52.156;5.382;2024-03-23T07:39:35;100631.09;;;14.72;100.00
26043;BME280;13818;52.156;5.382;2024-03-23T07:42:02;100646.34;;;14.72;100.00
26043;BME280;13818;52.156;5.382;2024-03-23T07:44:27;100640.34;;;14.26;100.00
26043;BME280;13818;52.156;5.382;2024-03-23T07:46:54;100645.94;;;13.51;100.00
26043;BME280;13818;52.156;5.382;2024-03-23T07:49:21;100642.47;;;13.34;100.00
26043;BME280;13818;52.156;5.382;2024-03-23T07:51:47;100636.28;;;13.03;100.00
26043;BME280;13818;52.156;5.382;2024-03-23T07:54:13;100645.19;;;13.18;100.00
26043;BME280;13818;52.156;5.382;2024-03-23T07:56:39;100636.59;;;12.83;100.00
26043;BME280;13818;52.156;5.382;2024-03-23T07:59:06;100646.09;;;12.89;100.00
26043;BME280;13818;52.156;5.382;2024-03-23T08:01:32;100641.31;;;12.63;100.00
26043;BME280;13818;52.156;5.382;2024-03-23T08:03:57;100629.59;;;12.50;100.00
26043;BME280;13818;52.156;5.382;2024-03-23T08:06:25;100634.09;;;12.17;100.00
26043;BME280;13818;52.156;5.382;2024-03-23T08:08:52;100627.53;;;12.39;100.00
26043;BME280;13818;52.156;5.382;2024-03-23T08:11:24;100637.03;;;12.61;100.00
26043;BME280;13818;52.156;5.382;2024-03-23T08:13:50;100632.19;;;12.51;100.00
26043;BME280;13818;52.156;5.382;2024-03-23T08:16:16;100627.22;;;12.76;100.00
26043;BME280;13818;52.156;5.382;2024-03-23T08:18:43;100623.47;;;12.48;100.00
26043;BME280;13818;52.156;5.382;2024-03-23T08:21:09;100627.72;;;12.36;100.00
26043;BME280;13818;52.156;5.382;2024-03-23T08:23:37;100635.13;;;12.47;100.00
26043;BME280;13818;52.156;5.382;2024-03-23T08:26:05;100630.00;;;12.58;100.00
26043;BME280;13818;52.156;5.382;2024-03-23T08:28:32;100627.13;;;12.31;100.00
26043;BME280;13818;52.156;5.382;2024-03-23T08:31:01;100636.59;;;12.36;100.00
26043;BME280;13818;52.156;5.382;2024-03-23T08:33:27;100637.56;;;12.19;100.00
26043;BME280;13818;52.156;5.382;2024-03-23T08:35:54;100630.22;;;12.07;100.00
26043;BME280;13818;52.156;5.382;2024-03-23T08:38:20;100627.84;;;11.18;100.00
26043;BME280;13818;52.156;5.382;2024-03-23T08:40:55;100624.88;;;10.71;100.00
26043;BME280;13818;52.156;5.382;2024-03-23T08:43:21;100627.31;;;10.76;100.00
26043;BME280;13818;52.156;5.382;2024-03-23T08:45:47;100649.59;;;10.93;100.00
26043;BME280;13818;52.156;5.382;2024-03-23T08:48:13;100635.47;;;11.08;100.00
26043;BME280;13818;52.156;5.382;2024-03-23T08:50:39;100630.59;;;10.99;100.00
26043;BME280;13818;52.156;5.382;2024-03-23T08:53:05;100622.19;;;10.71;100.00
26043;BME280;13818;52.156;5.382;2024-03-23T08:55:31;100641.38;;;10.43;100.00
26043;BME280;13818;52.156;5.382;2024-03-23T08:57:58;100627.25;;;10.41;100.00
26043;BME280;13818;52.156;5.382;2024-03-23T09:00:25;100637.00;;;10.60;100.00
26043;BME280;13818;52.156;5.382;2024-03-23T09:02:51;100631.94;;;10.72;100.00
26043;BME280;13818;52.156;5.382;2024-03-23T09:05:18;100621.91;;;10.95;100.00
26043;BME280;13818;52.156;5.382;2024-03-23T09:07:43;100630.13;;;11.26;100.00
26043;BME280;13818;52.156;5.382;2024-03-23T09:10:10;100627.28;;;11.46;100.00
26043;BME280;13818;52.156;5.382;2024-03-23T09:12:35;100623.63;;;10.96;100.00
26043;BME280;13818;52.156;5.382;2024-03-23T09:15:03;100627.47;;;10.73;100.00
26043;BME280;13818;52.156;5.382;2024-03-23T09:17:29;100631.91;;;10.55;100.00
26043;BME280;13818;52.156;5.382;2024-03-23T09:19:56;100621.72;;;10.46;100.00
26043;BME280;13818;52.156;5.382;2024-03-23T09:22:22;100626.75;;;10.33;100.00
26043;BME280;13818;52.156;5.382;2024-03-23T09:24:48;100616.47;;;10.06;100.00
26043;BME280;13818;52.156;5.382;2024-03-23T09:27:14;100624.16;;;10.12;100.00
26043;BME280;13818;52.156;5.382;2024-03-23T09:29:40;100615.09;;;10.16;100.00
26043;BME280;13818;52.156;5.382;2024-03-23T09:32:07;100613.56;;;10.30;100.00
26043;BME280;13818;52.156;5.382;2024-03-23T09:34:34;100605.63;;;10.47;100.00
26043;BME280;13818;52.156;5.382;2024-03-23T09:36:59;100613.91;;;10.78;100.00
26043;BME280;13818;52.156;5.382;2024-03-23T09:39:26;100619.00;;;11.00;100.00
26043;BME280;13818;52.156;5.382;2024-03-23T09:41:56;100621.44;;;11.04;100.00
26043;BME280;13818;52.156;5.382;2024-03-23T09:44:23;100627.81;;;11.02;100.00
26043;BME280;13818;52.156;5.382;2024-03-23T09:46:51;100626.06;;;11.01;100.00
26043;BME280;13818;52.156;5.382;2024-03-23T09:49:20;100617.13;;;11.02;100.00
26043;BME280;13818;52.156;5.382;2024-03-23T09:51:45;100607.72;;;10.95;100.00
26043;BME280;13818;52.156;5.382;2024-03-23T09:54:12;100619.94;;;10.99;100.00
26043;BME280;13818;52.156;5.382;2024-03-23T09:56:37;100620.97;;;10.96;100.00
26043;BME280;13818;52.156;5.382;2024-03-23T09:59:04;100598.38;;;11.03;100.00
26043;BME280;13818;52.156;5.382;2024-03-23T10:01:30;100605.66;;;11.17;100.00
26043;BME280;13818;52.156;5.382;2024-03-23T10:03:56;100595.41;;;11.10;100.00
26043;BME280;13818;52.156;5.382;2024-03-23T10:06:23;100599.81;;;11.27;100.00
26043;BME280;13818;52.156;5.382;2024-03-23T10:08:51;100594.22;;;11.49;100.00
26043;BME280;13818;52.156;5.382;2024-03-23T10:11:18;100590.44;;;11.53;100.00
26043;BME280;13818;52.156;5.382;2024-03-23T10:13:46;100598.19;;;11.58;100.00
26043;BME280;13818;52.156;5.382;2024-03-23T10:16:12;100596.84;;;11.33;100.00
26043;BME280;13818;52.156;5.382;2024-03-23T10:18:47;100597.84;;;10.79;100.00
26043;BME280;13818;52.156;5.382;2024-03-23T10:21:14;100609.19;;;10.65;100.00
26043;BME280;13818;52.156;5.382;2024-03-23T10:23:43;100606.28;;;10.70;100.00
26043;BME280;13818;52.156;5.382;2024-03-23T10:26:18;100609.97;;;10.67;100.00
26043;BME280;13818;52.156;5.382;2024-03-23T10:28:53;100607.53;;;10.80;100.00
26043;BME280;13818;52.156;5.382;2024-03-23T10:31:20;100609.56;;;10.57;100.00
26043;BME280;13818;52.156;5.382;2024-03-23T10:33:46;100590.00;;;10.76;100.00
26043;BME280;13818;52.156;5.382;2024-03-23T10:36:12;100604.56;;;10.86;100.00
26043;BME280;13818;52.156;5.382;2024-03-23T10:38:40;100594.47;;;10.76;100.00
26043;BME280;13818;52.156;5.382;2024-03-23T10:41:09;100592.81;;;10.73;100.00
26043;BME280;13818;52.156;5.382;2024-03-23T10:43:35;100592.81;;;10.55;100.00
26043;BME280;13818;52.156;5.382;2024-03-23T10:46:02;100603.91;;;10.46;100.00
26043;BME280;13818;52.156;5.382;2024-03-23T10:48:28;100591.59;;;10.44;100.00
26043;BME280;13818;52.156;5.382;2024-03-23T10:50:54;100597.81;;;10.44;100.00
26043;BME280;13818;52.156;5.382;2024-03-23T10:53:21;100604.06;;;10.43;100.00
26043;BME280;13818;52.156;5.382;2024-03-23T10:55:51;100612.91;;;10.44;100.00
26043;BME280;13818;52.156;5.382;2024-03-23T10:58:21;100608.75;;;10.38;100.00
26043;BME280;13818;52.156;5.382;2024-03-23T11:00:49;100614.19;;;10.36;100.00
26043;BME280;13818;52.156;5.382;2024-03-23T11:03:31;100598.56;;;10.46;100.00
26043;BME280;13818;52.156;5.382;2024-03-23T11:05:59;100598.28;;;10.70;100.00
26043;BME280;13818;52.156;5.382;2024-03-23T11:08:30;100582.16;;;10.90;100.00
26043;BME280;13818;52.156;5.382;2024-03-23T11:11:12;100602.38;;;10.95;100.00
26043;BME280;13818;52.156;5.382;2024-03-23T11:13:39;100589.38;;;10.88;100.00
26043;BME280;13818;52.156;5.382;2024-03-23T11:16:15;100597.38;;;10.88;100.00
26043;BME280;13818;52.156;5.382;2024-03-23T11:18:42;100584.81;;;10.90;100.00
26043;BME280;13818;52.156;5.382;2024-03-23T11:21:10;100603.16;;;10.62;100.00
26043;BME280;13818;52.156;5.382;2024-03-23T11:23:36;100580.81;;;10.47;100.00
26043;BME280;13818;52.156;5.382;2024-03-23T11:26:02;100592.88;;;10.36;100.00
26043;BME280;13818;52.156;5.382;2024-03-23T11:28:32;100600.38;;;10.46;100.00
26043;BME280;13818;52.156;5.382;2024-03-23T11:30:59;100586.28;;;10.44;100.00
26043;BME280;13818;52.156;5.382;2024-03-23T11:33:25;100592.53;;;10.23;100.00
26043;BME280;13818;52.156;5.382;2024-03-23T11:35:52;100591.69;;;10.23;100.00
26043;BME280;13818;52.156;5.382;2024-03-23T11:38:18;100583.63;;;10.24;100.00
26043;BME280;13818;52.156;5.382;2024-03-23T11:40:46;100584.00;;;10.17;100.00
26043;BME280;13818;52.156;5.382;2024-03-23T11:43:13;100583.50;;;10.08;100.00
26043;BME280;13818;52.156;5.382;2024-03-23T11:45:42;100579.19;;;10.06;100.00
26043;BME280;13818;52.156;5.382;2024-03-23T11:48:10;100574.03;;;10.03;100.00
26043;BME280;13818;52.156;5.382;2024-03-23T11:50:39;100574.91;;;10.21;100.00
26043;BME280;13818;52.156;5.382;2024-03-23T11:53:07;100560.75;;;10.20;100.00
26043;BME280;13818;52.156;5.382;2024-03-23T11:55:39;100553.00;;;10.33;100.00
26043;BME280;13818;52.156;5.382;2024-03-23T11:58:05;100546.81;;;10.33;100.00
26043;BME280;13818;52.156;5.382;2024-03-23T12:00:31;100551.66;;;10.24;100.00
26043;BME280;13818;52.156;5.382;2024-03-23T12:03:00;100574.56;;;10.09;100.00
26043;BME280;13818;52.156;5.382;2024-03-23T12:05:28;100571.19;;;10.06;100.00
26043;BME280;13818;52.156;5.382;2024-03-23T12:07:54;100568.53;;;10.06;100.00
26043;BME280;13818;52.156;5.382;2024-03-23T12:10:21;100565.38;;;9.98;100.00
26043;BME280;13818;52.156;5.382;2024-03-23T12:12:59;100570.72;;;9.98;100.00
26043;BME280;13818;52.156;5.382;2024-03-23T12:15:25;100562.28;;;10.07;100.00
26043;BME280;13818;52.156;5.382;2024-03-23T12:17:52;100567.38;;;10.12;100.00
26043;BME280;13818;52.156;5.382;2024-03-23T12:20:33;100564.00;;;10.08;100.00
26043;BME280;13818;52.156;5.382;2024-03-23T12:23:05;100557.88;;;10.06;100.00
26043;BME280;13818;52.156;5.382;2024-03-23T12:25:32;100561.72;;;10.00;100.00
26043;BME280;13818;52.156;5.382;2024-03-23T12:27:59;100533.53;;;9.96;100.00
26043;BME280;13818;52.156;5.382;2024-03-23T12:30:25;100534.16;;;10.01;100.00
26043;BME280;13818;52.156;5.382;2024-03-23T12:32:51;100546.34;;;10.24;100.00
26043;BME280;13818;52.156;5.382;2024-03-23T12:35:17;100536.84;;;10.38;100.00
26043;BME280;13818;52.156;5.382;2024-03-23T12:37:44;100540.28;;;10.57;100.00
26043;BME280;13818;52.156;5.382;2024-03-23T12:40:11;100536.97;;;10.70;100.00
26043;BME280;13818;52.156;5.382;2024-03-23T12:42:36;100533.69;;;10.65;100.00
26043;BME280;13818;52.156;5.382;2024-03-23T12:45:04;100540.28;;;10.57;100.00
26043;BME280;13818;52.156;5.382;2024-03-23T12:47:30;100545.91;;;10.69;100.00
26043;BME280;13818;52.156;5.382;2024-03-23T12:49:56;100547.56;;;10.71;100.00
26043;BME280;13818;52.156;5.382;2024-03-23T12:52:22;100546.78;;;10.69;100.00
26043;BME280;13818;52.156;5.382;2024-03-23T12:54:55;100542.94;;;10.57;100.00
26043;BME280;13818;52.156;5.382;2024-03-23T12:57:22;100543.50;;;10.64;100.00
26043;BME280;13818;52.156;5.382;2024-03-23T12:59:48;100540.84;;;10.47;100.00
26043;BME280;13818;52.156;5.382;2024-03-23T13:02:16;100532.63;;;10.32;100.00
26043;BME280;13818;52.156;5.382;2024-03-23T13:04:43;100539.34;;;10.22;100.00
26043;BME280;13818;52.156;5.382;2024-03-23T13:07:09;100534.34;;;10.33;100.00
26043;BME280;13818;52.156;5.382;2024-03-23T13:09:35;100535.50;;;10.47;100.00
26043;BME280;13818;52.156;5.382;2024-03-23T13:12:02;100535.66;;;10.61;100.00
26043;BME280;13818;52.156;5.382;2024-03-23T13:14:29;100534.50;;;10.67;100.00
26043;BME280;13818;52.156;5.382;2024-03-23T13:16:54;100530.09;;;10.66;100.00
26043;BME280;13818;52.156;5.382;2024-03-23T13:19:21;100523.63;;;10.87;100.00
26043;BME280;13818;52.156;5.382;2024-03-23T13:21:52;100531.41;;;10.92;100.00
26043;BME280;13818;52.156;5.382;2024-03-23T13:24:21;100537.50;;;10.94;100.00
26043;BME280;13818;52.156;5.382;2024-03-23T13:26:47;100554.53;;;10.91;100.00
26043;BME280;13818;52.156;5.382;2024-03-23T13:29:15;100560.84;;;10.73;100.00
26043;BME280;13818;52.156;5.382;2024-03-23T13:31:40;100548.75;;;10.48;100.00
26043;BME280;13818;52.156;5.382;2024-03-23T13:34:07;100541.88;;;10.25;100.00
26043;BME280;13818;52.156;5.382;2024-03-23T13:36:32;100536.66;;;10.41;100.00